LFOH/LEH METAR and TAF weather

Enter ICAO airport designator
Station Type Date Time Source
LFOH METAR 2018/12/19 09:00 UTC NOAA

LFOH 190900Z AUTO 19014KT 160V220 CAVOK 08/06 Q1009 TEMPO 4000 SHRA BKN012 BKN020CB


Station Type Date Time Source
LFOH Decoded METAR 2018/12/19 09:00 UTC NOAA

La Heve, France (LFOH) 49-31N 000-04E 103M
Dec 19, 2018 - 04:00 AM EST / 2018.12.19 0900 UTC
Wind: from the S (190 degrees) at 16 MPH (14 KT) (direction variable):0
Visibility: greater than 7 mile(s):0
Weather: Cumulonimbus clouds observed
Temperature: 46 F (8 C)
Dew Point: 42 F (6 C)
Relative Humidity: 87%
Pressure (altimeter): 29.80 in. Hg (1009 hPa)
ob: LFOH 190900Z AUTO 19014KT 160V220 CAVOK 08/06 Q1009 TEMPO 4000 SHRA BKN012 BKN020CB
cycle: 9

Station Type Date Time Source
LFOH TAF 2018/12/19 06:21 UTC NOAA

TAF LFOH 190500Z 1906/2006 20015KT 9999 BKN030 PROB30
TEMPO 1906/1916 4000 SHRA BKN012 BKN020CB
BECMG 1918/1920 20015G25KT
TEMPO 1921/2006 3000 SHRA BKN009 BKN020CB PROB30 1921/2006 TSRA


Example: see airport list